createdAt,value
2022-10-02T00:00:54.069Z,11.43
2022-10-02T00:05:08.122Z,9.33
2022-10-02T00:09:13.924Z,9.60
2022-10-02T00:13:30.554Z,11.47
2022-10-02T00:17:38.195Z,15.57
2022-10-02T00:22:12.170Z,12.40
2022-10-02T00:26:20.089Z,7.97
2022-10-02T00:30:21.571Z,8.93
2022-10-02T00:34:43.207Z,9.67
2022-10-02T00:39:03.316Z,9.90
2022-10-02T00:43:24.980Z,16.23
2022-10-02T00:47:42.207Z,14.63
2022-10-02T00:52:02.296Z,13.93
2022-10-02T00:56:29.590Z,10.17
2022-10-02T01:00:31.096Z,16.73
2022-10-02T01:04:38.276Z,12.37
2022-10-02T01:08:40.392Z,9.00
2022-10-02T01:12:41.710Z,13.00
2022-10-02T01:16:44.522Z,8.83
2022-10-02T01:20:51.998Z,10.93
2022-10-02T01:24:54.675Z,9.30
2022-10-02T01:28:55.958Z,13.73
2022-10-02T01:33:00.687Z,10.73
2022-10-02T01:37:02.712Z,12.10
2022-10-02T01:41:03.990Z,10.97
2022-10-02T01:45:07.679Z,16.43
2022-10-02T01:49:18.715Z,13.87
2022-10-02T01:53:38.708Z,7.37
2022-10-02T01:57:52.709Z,9.90
2022-10-02T02:02:06.806Z,12.60
2022-10-02T02:06:17.449Z,7.50
2022-10-02T02:10:49.611Z,13.20
2022-10-02T02:14:54.473Z,11.53
2022-10-02T02:19:20.626Z,7.80
2022-10-02T02:23:28.222Z,5.93
2022-10-02T02:27:33.219Z,9.23
2022-10-02T02:31:41.245Z,12.47
2022-10-02T02:35:46.276Z,12.70
2022-10-02T02:39:54.350Z,11.67
2022-10-02T02:43:59.241Z,8.80
2022-10-02T02:48:16.406Z,10.67
2022-10-02T02:52:23.854Z,10.50
2022-10-02T02:56:27.632Z,8.77
2022-10-02T03:00:29.159Z,15.17
2022-10-02T03:04:30.738Z,11.70
2022-10-02T03:08:35.827Z,10.03
2022-10-02T03:12:49.308Z,9.93
2022-10-02T03:16:54.395Z,15.10
2022-10-02T03:21:14.566Z,11.90
2022-10-02T03:25:22.445Z,13.40
2022-10-02T03:29:30.417Z,6.57
2022-10-02T03:33:33.538Z,10.27
2022-10-02T03:37:35.050Z,9.30
2022-10-02T03:41:36.145Z,9.70
2022-10-02T03:45:50.911Z,17.60
2022-10-02T03:49:40.366Z,8.20
2022-10-02T03:53:41.946Z,14.20
2022-10-02T03:57:44.725Z,8.20
2022-10-02T04:01:49.950Z,9.17
2022-10-02T04:05:57.896Z,9.60
2022-10-02T04:10:20.585Z,6.70
2022-10-02T04:14:31.307Z,11.60
2022-10-02T04:18:39.288Z,13.40
2022-10-02T04:22:53.297Z,10.03
2022-10-02T04:27:01.083Z,10.80
2022-10-02T04:31:11.948Z,9.70
2022-10-02T04:35:19.918Z,9.30
2022-10-02T04:39:30.784Z,11.43
2022-10-02T04:43:41.851Z,14.40
2022-10-02T04:51:15.095Z,10.33
2022-10-02T04:55:36.487Z,14.47
2022-10-02T04:59:53.688Z,10.80
2022-10-02T05:04:21.805Z,9.50
2022-10-02T05:08:45.203Z,12.27
2022-10-02T05:13:05.539Z,8.90
2022-10-02T05:17:12.946Z,15.93
2022-10-02T05:21:26.598Z,11.83
2022-10-02T05:25:50.031Z,12.03
2022-10-02T05:30:15.554Z,12.20
2022-10-02T05:34:26.583Z,11.40
2022-10-02T05:38:46.670Z,10.80
2022-10-02T05:43:09.787Z,15.90
2022-10-02T05:47:20.925Z,10.83
2022-10-02T05:51:42.681Z,17.20
2022-10-02T05:55:47.636Z,14.13
2022-10-02T06:00:01.528Z,9.00
2022-10-02T06:04:21.733Z,10.47
2022-10-02T06:08:35.622Z,14.17
2022-10-02T06:12:43.611Z,9.20
2022-10-02T06:16:54.358Z,13.80
2022-10-02T06:21:11.757Z,9.17
2022-10-02T06:25:22.885Z,10.90
2022-10-02T06:29:28.890Z,12.73
2022-10-02T06:33:32.758Z,9.63
2022-10-02T06:37:48.202Z,9.70
2022-10-02T06:41:55.983Z,15.47
2022-10-02T06:46:10.328Z,11.27
2022-10-02T06:50:27.819Z,9.70
2022-10-02T06:54:47.522Z,11.93
2022-10-02T06:58:55.462Z,10.43
2022-10-02T07:03:22.114Z,20.13
2022-10-02T07:07:39.148Z,11.57
2022-10-02T07:11:53.311Z,10.30
2022-10-02T07:16:13.236Z,10.40
2022-10-02T07:20:24.429Z,9.70
2022-10-02T07:24:44.452Z,12.03
2022-10-02T07:28:55.035Z,6.60
2022-10-02T07:33:18.831Z,8.00
2022-10-02T07:37:27.217Z,8.80
2022-10-02T07:41:41.495Z,20.77
2022-10-02T07:46:04.628Z,6.20
2022-10-02T07:50:30.988Z,6.40
2022-10-02T07:54:41.519Z,5.13
2022-10-02T07:59:01.409Z,8.23
2022-10-02T08:03:15.509Z,5.57
2022-10-02T08:07:16.755Z,5.03
2022-10-02T08:11:24.310Z,7.30
2022-10-02T08:15:29.286Z,7.90
2022-10-02T08:19:34.190Z,6.60
2022-10-02T08:23:42.042Z,8.37
2022-10-02T08:28:12.743Z,9.30
2022-10-02T08:32:14.282Z,6.13
2022-10-02T08:36:19.308Z,5.30
2022-10-02T08:40:28.762Z,4.00
2022-10-02T08:44:53.707Z,4.33
2022-10-02T08:48:58.602Z,5.40
2022-10-02T08:53:12.579Z,12.33
2022-10-02T08:57:40.713Z,4.30
2022-10-02T09:02:02.271Z,3.90
2022-10-02T09:06:19.697Z,5.27
2022-10-02T09:10:44.630Z,4.80
2022-10-02T09:14:55.562Z,7.63
2022-10-02T09:19:20.055Z,6.40
2022-10-02T09:23:40.358Z,7.30
2022-10-02T09:27:48.597Z,9.00
2022-10-02T09:32:21.080Z,4.30
2022-10-02T09:37:01.000Z,4.93
2022-10-02T09:41:32.741Z,5.97
2022-10-02T09:46:13.555Z,3.50
2022-10-02T09:50:36.496Z,4.10
2022-10-02T09:54:55.991Z,4.13
2022-10-02T09:59:33.211Z,5.93
2022-10-02T10:03:44.197Z,10.17
2022-10-02T10:08:07.546Z,6.07
2022-10-02T10:12:29.297Z,5.30
2022-10-02T10:17:04.973Z,5.03
2022-10-02T10:21:30.102Z,5.30
2022-10-02T10:25:49.597Z,5.00
2022-10-02T10:29:54.595Z,4.67
2022-10-02T10:34:11.907Z,4.40
2022-10-02T10:38:32.210Z,4.70
2022-10-02T10:43:07.461Z,4.53
2022-10-02T10:47:22.238Z,10.93
2022-10-02T10:51:30.013Z,3.63
2022-10-02T10:55:50.000Z,4.77
2022-10-02T11:00:04.143Z,6.30
2022-10-02T11:04:17.763Z,4.20
2022-10-02T11:08:25.569Z,2.40
2022-10-02T11:12:43.234Z,6.40
2022-10-02T11:17:10.925Z,4.90
2022-10-02T11:21:25.300Z,3.93
2022-10-02T11:25:56.117Z,5.43
2022-10-02T11:30:24.757Z,4.53
2022-10-02T11:34:54.128Z,3.00
2022-10-02T11:39:16.645Z,2.80
2022-10-02T11:43:28.145Z,3.20
2022-10-02T11:47:42.170Z,3.07
2022-10-02T11:51:55.876Z,2.37
2022-10-02T11:56:11.085Z,2.97
2022-10-02T12:00:33.221Z,2.93
2022-10-02T12:04:41.359Z,2.70
2022-10-02T12:08:52.361Z,2.87
2022-10-02T12:13:16.566Z,4.50
2022-10-02T12:17:49.276Z,3.23
2022-10-02T12:22:12.591Z,2.30
2022-10-02T12:26:42.263Z,2.70
2022-10-02T12:31:13.604Z,2.70
2022-10-02T12:35:25.558Z,2.60
2022-10-02T12:39:58.119Z,2.50
2022-10-02T12:44:26.079Z,2.50
2022-10-02T12:48:37.827Z,2.93
2022-10-02T12:53:16.547Z,2.33
2022-10-02T12:57:40.299Z,2.83
2022-10-02T13:02:05.740Z,2.50
2022-10-02T13:06:33.383Z,4.80
2022-10-02T13:10:53.866Z,3.67
2022-10-02T13:15:17.129Z,2.40
2022-10-02T13:19:24.595Z,3.80
2022-10-02T13:23:38.723Z,3.00
2022-10-02T13:27:47.040Z,2.60
2022-10-02T13:31:54.623Z,3.37
2022-10-02T13:36:05.915Z,5.37
2022-10-02T13:40:40.305Z,2.47
2022-10-02T13:45:03.385Z,3.60
2022-10-02T13:49:08.383Z,2.77
2022-10-02T13:53:13.366Z,2.97
2022-10-02T13:57:21.354Z,2.97
2022-10-02T14:01:35.979Z,4.73
2022-10-02T14:05:47.463Z,3.10
2022-10-02T14:10:25.650Z,2.90
2022-10-02T14:14:35.149Z,3.80
2022-10-02T14:19:12.577Z,2.90
2022-10-02T14:23:32.981Z,5.93
2022-10-02T14:28:01.288Z,2.53
2022-10-02T14:32:10.488Z,3.80
2022-10-02T14:36:24.563Z,4.30
2022-10-02T14:40:38.686Z,9.23
2022-10-02T14:45:20.981Z,3.57
2022-10-02T14:49:41.092Z,12.60
2022-10-02T14:53:55.121Z,10.77
2022-10-02T14:58:09.991Z,4.27
2022-10-02T15:02:23.554Z,3.00
2022-10-02T15:06:49.514Z,3.33
2022-10-02T15:10:51.495Z,5.53
2022-10-02T15:15:05.941Z,4.80
2022-10-02T15:19:22.932Z,5.80
2022-10-02T15:23:40.699Z,3.97
2022-10-02T15:28:35.149Z,3.33
2022-10-02T15:32:47.676Z,5.37
2022-10-02T15:37:21.259Z,6.20
2022-10-02T15:41:35.380Z,4.93
2022-10-02T15:45:40.521Z,6.23
2022-10-02T15:49:51.482Z,5.03
2022-10-02T15:54:11.791Z,4.20
2022-10-02T15:58:50.550Z,3.93
2022-10-02T16:03:04.693Z,4.53
2022-10-02T16:07:12.703Z,12.90
2022-10-02T16:11:23.662Z,8.60
2022-10-02T16:15:48.240Z,5.30
2022-10-02T16:20:11.770Z,5.30
2022-10-02T16:24:38.385Z,4.90
2022-10-02T16:29:01.889Z,3.70
2022-10-02T16:33:22.304Z,4.00
2022-10-02T16:37:28.586Z,3.70
2022-10-02T16:41:39.511Z,3.57
2022-10-02T16:45:59.194Z,5.00
2022-10-02T16:50:22.425Z,4.10
2022-10-02T16:54:44.140Z,4.20
2022-10-02T16:58:52.149Z,4.27
2022-10-02T17:03:13.846Z,4.93
2022-10-02T17:07:29.263Z,3.63
2022-10-02T17:11:34.401Z,5.40
2022-10-02T17:15:46.416Z,5.47
2022-10-02T17:20:03.570Z,4.30
2022-10-02T17:24:35.763Z,6.40
2022-10-02T17:28:46.752Z,5.87
2022-10-02T17:33:08.715Z,7.17
2022-10-02T17:37:20.395Z,4.97
2022-10-02T17:41:37.773Z,4.57
2022-10-02T17:45:45.804Z,5.33
2022-10-02T17:50:24.424Z,8.23
2022-10-02T17:54:51.033Z,6.77
2022-10-02T17:59:08.296Z,7.17
2022-10-02T18:03:19.083Z,8.23
2022-10-02T18:07:55.850Z,7.10
2022-10-02T18:12:20.883Z,6.40
2022-10-02T18:16:38.283Z,6.27
2022-10-02T18:21:02.839Z,6.63
2022-10-02T18:25:29.572Z,6.37
2022-10-02T18:29:49.438Z,7.80
2022-10-02T18:34:17.069Z,12.03
2022-10-02T18:38:51.400Z,9.63
2022-10-02T18:43:18.702Z,9.33
2022-10-02T18:47:26.202Z,7.00
2022-10-02T18:51:49.580Z,7.43
2022-10-02T18:56:03.711Z,10.33
2022-10-02T19:00:22.237Z,9.47
2022-10-02T19:04:39.693Z,8.70
2022-10-02T19:08:56.916Z,9.70
2022-10-02T19:13:16.713Z,26.20
2022-10-02T19:17:25.363Z,16.47
2022-10-02T19:21:26.635Z,11.50
2022-10-02T19:25:28.225Z,6.73
2022-10-02T19:29:48.987Z,5.90
2022-10-02T19:33:53.976Z,8.27
2022-10-02T19:38:01.719Z,14.87
2022-10-02T19:42:12.464Z,9.93
2022-10-02T19:46:15.984Z,10.60
2022-10-02T19:50:23.773Z,12.00
2022-10-02T19:54:31.821Z,18.90
2022-10-02T19:58:45.387Z,11.43
2022-10-02T20:02:49.690Z,6.70
2022-10-02T20:06:56.588Z,8.20
2022-10-02T20:11:07.124Z,8.73
2022-10-02T20:15:20.236Z,7.70
2022-10-02T20:19:25.036Z,9.13
2022-10-02T20:23:29.026Z,7.63
2022-10-02T20:27:50.882Z,7.93
2022-10-02T20:31:58.773Z,9.10
2022-10-02T20:36:06.907Z,9.20
2022-10-02T20:40:15.235Z,8.00
2022-10-02T20:44:17.708Z,8.40
2022-10-02T20:49:06.326Z,8.03
2022-10-02T20:52:59.143Z,6.77
2022-10-02T20:57:29.776Z,7.30
2022-10-02T21:01:40.853Z,9.50
2022-10-02T21:06:06.548Z,11.00
2022-10-02T21:10:40.335Z,9.57
2022-10-02T21:15:14.457Z,8.20
2022-10-02T21:19:51.602Z,9.43
2022-10-02T21:24:15.359Z,8.70
2022-10-02T21:28:23.550Z,8.60
2022-10-02T21:32:58.732Z,6.70
2022-10-02T21:37:29.551Z,6.90
2022-10-02T21:41:44.930Z,9.13
2022-10-02T21:46:20.646Z,9.97
2022-10-02T21:50:31.337Z,8.57
2022-10-02T21:54:42.547Z,10.00
2022-10-02T21:59:05.898Z,9.47
2022-10-02T22:03:44.747Z,15.60
2022-10-02T22:07:52.431Z,8.40
2022-10-02T22:12:00.461Z,9.33
2022-10-02T22:16:14.357Z,9.00
2022-10-02T22:20:25.376Z,8.53
2022-10-02T22:24:39.647Z,11.27
2022-10-02T22:28:50.852Z,9.60
2022-10-02T22:33:11.310Z,8.97
2022-10-02T22:37:16.372Z,15.33
2022-10-02T22:41:33.545Z,9.30
2022-10-02T22:45:40.980Z,9.70
2022-10-02T22:49:46.171Z,8.60
2022-10-02T22:53:51.163Z,9.90
2022-10-02T22:58:01.874Z,9.60
2022-10-02T23:02:16.123Z,11.37
2022-10-02T23:06:32.713Z,11.27
2022-10-02T23:10:43.841Z,9.93
2022-10-02T23:15:06.853Z,9.30
2022-10-02T23:19:26.591Z,12.10
2022-10-02T23:23:31.573Z,9.33
2022-10-02T23:28:09.846Z,13.10
2022-10-02T23:32:30.921Z,10.73
2022-10-02T23:36:38.999Z,10.63
2022-10-02T23:41:28.751Z,10.30
2022-10-02T23:45:36.734Z,10.73
2022-10-02T23:49:43.932Z,11.80
2022-10-02T23:54:01.185Z,9.13
2022-10-02T23:58:24.007Z,11.80
